sensor_id;sensor_type;location;lat;lon;timestamp;P1;durP1;ratioP1;P2;durP2;ratioP2
67429;SDS011;54298;52.076;5.264;2022-12-07T00:02:03;18.41;;;10.9;;
67429;SDS011;54298;52.076;5.264;2022-12-07T00:03:40;15.2;;;9.81;;
67429;SDS011;54298;52.076;5.264;2022-12-07T00:05:17;13.3;;;7.7;;
67429;SDS011;54298;52.076;5.264;2022-12-07T00:08:30;11.8;;;7.6;;
67429;SDS011;54298;52.076;5.264;2022-12-07T00:10:07;10.6;;;7.5;;
67429;SDS011;54298;52.076;5.264;2022-12-07T00:11:45;12.2;;;7.3;;
67429;SDS011;54298;52.076;5.264;2022-12-07T00:13:25;12.2;;;7.3;;
67429;SDS011;54298;52.076;5.264;2022-12-07T00:16:38;14.0;;;7.4;;
67429;SDS011;54298;52.076;5.264;2022-12-07T00:18:15;15.9;;;9.0;;
67429;SDS011;54298;52.076;5.264;2022-12-07T00:19:52;13.0;;;8.0;;
67429;SDS011;54298;52.076;5.264;2022-12-07T00:23:07;13.9;;;8.0;;
67429;SDS011;54298;52.076;5.264;2022-12-07T00:24:43;11.8;;;7.4;;
67429;SDS011;54298;52.076;5.264;2022-12-07T00:26:20;16.11;;;8.81;;
67429;SDS011;54298;52.076;5.264;2022-12-07T00:27:58;13.4;;;8.0;;
67429;SDS011;54298;52.076;5.264;2022-12-07T00:31:10;17.0;;;9.21;;
67429;SDS011;54298;52.076;5.264;2022-12-07T00:32:48;11.9;;;7.5;;
67429;SDS011;54298;52.076;5.264;2022-12-07T00:34:24;13.4;;;7.8;;
67429;SDS011;54298;52.076;5.264;2022-12-07T00:37:39;13.4;;;7.9;;
67429;SDS011;54298;52.076;5.264;2022-12-07T00:39:15;12.8;;;6.8;;
67429;SDS011;54298;52.076;5.264;2022-12-07T00:40:54;12.6;;;7.2;;
67429;SDS011;54298;52.076;5.264;2022-12-07T00:42:32;13.9;;;7.4;;
67429;SDS011;54298;52.076;5.264;2022-12-07T00:45:44;13.2;;;7.8;;
67429;SDS011;54298;52.076;5.264;2022-12-07T00:47:21;11.8;;;8.1;;
67429;SDS011;54298;52.076;5.264;2022-12-07T00:48:57;9.5;;;6.8;;
67429;SDS011;54298;52.076;5.264;2022-12-07T00:52:09;10.8;;;7.1;;
67429;SDS011;54298;52.076;5.264;2022-12-07T00:53:45;13.3;;;7.2;;
67429;SDS011;54298;52.076;5.264;2022-12-07T00:55:22;12.0;;;8.5;;
67429;SDS011;54298;52.076;5.264;2022-12-07T00:58:35;16.2;;;7.5;;
67429;SDS011;54298;52.076;5.264;2022-12-07T01:00:11;10.9;;;6.6;;
67429;SDS011;54298;52.076;5.264;2022-12-07T01:01:48;13.3;;;7.0;;
67429;SDS011;54298;52.076;5.264;2022-12-07T01:03:24;11.8;;;6.5;;
67429;SDS011;54298;52.076;5.264;2022-12-07T01:06:37;10.8;;;6.5;;
67429;SDS011;54298;52.076;5.264;2022-12-07T01:08:14;13.4;;;7.7;;
67429;SDS011;54298;52.076;5.264;2022-12-07T01:09:50;11.2;;;7.3;;
67429;SDS011;54298;52.076;5.264;2022-12-07T01:13:05;11.4;;;7.4;;
67429;SDS011;54298;52.076;5.264;2022-12-07T01:14:41;14.3;;;8.31;;
67429;SDS011;54298;52.076;5.264;2022-12-07T01:16:18;15.1;;;7.5;;
67429;SDS011;54298;52.076;5.264;2022-12-07T01:19:32;11.0;;;6.3;;
67429;SDS011;54298;52.076;5.264;2022-12-07T01:21:09;11.3;;;6.6;;
67429;SDS011;54298;52.076;5.264;2022-12-07T01:22:47;11.3;;;6.2;;
67429;SDS011;54298;52.076;5.264;2022-12-07T01:24:24;11.3;;;5.5;;
67429;SDS011;54298;52.076;5.264;2022-12-07T01:27:39;12.9;;;6.7;;
67429;SDS011;54298;52.076;5.264;2022-12-07T01:29:15;8.9;;;4.91;;
67429;SDS011;54298;52.076;5.264;2022-12-07T01:30:55;12.0;;;6.4;;
67429;SDS011;54298;52.076;5.264;2022-12-07T01:34:09;9.1;;;5.0;;
67429;SDS011;54298;52.076;5.264;2022-12-07T01:35:46;9.71;;;5.6;;
67429;SDS011;54298;52.076;5.264;2022-12-07T01:37:22;12.7;;;6.0;;
67429;SDS011;54298;52.076;5.264;2022-12-07T01:38:59;11.2;;;6.1;;
67429;SDS011;54298;52.076;5.264;2022-12-07T01:42:12;10.21;;;5.8;;
67429;SDS011;54298;52.076;5.264;2022-12-07T01:44:19;11.5;;;6.2;;
67429;SDS011;54298;52.076;5.264;2022-12-07T01:45:59;14.2;;;7.4;;
67429;SDS011;54298;52.076;5.264;2022-12-07T01:47:39;8.81;;;6.2;;
67429;SDS011;54298;52.076;5.264;2022-12-07T01:51:01;11.2;;;6.3;;
67429;SDS011;54298;52.076;5.264;2022-12-07T01:52:41;11.6;;;6.1;;
67429;SDS011;54298;52.076;5.264;2022-12-07T01:54:24;10.5;;;5.7;;
67429;SDS011;54298;52.076;5.264;2022-12-07T01:56:01;10.9;;;5.8;;
67429;SDS011;54298;52.076;5.264;2022-12-07T01:59:19;11.2;;;5.9;;
67429;SDS011;54298;52.076;5.264;2022-12-07T02:00:59;11.7;;;6.5;;
67429;SDS011;54298;52.076;5.264;2022-12-07T02:02:36;12.9;;;7.5;;
67429;SDS011;54298;52.076;5.264;2022-12-07T02:04:17;12.6;;;6.3;;
67429;SDS011;54298;52.076;5.264;2022-12-07T02:07:34;12.9;;;6.6;;
67429;SDS011;54298;52.076;5.264;2022-12-07T02:09:14;12.9;;;6.4;;
67429;SDS011;54298;52.076;5.264;2022-12-07T02:10:51;9.71;;;5.7;;
67429;SDS011;54298;52.076;5.264;2022-12-07T02:12:27;13.2;;;6.2;;
67429;SDS011;54298;52.076;5.264;2022-12-07T02:15:44;10.9;;;5.5;;
67429;SDS011;54298;52.076;5.264;2022-12-07T02:17:40;7.7;;;4.41;;
67429;SDS011;54298;52.076;5.264;2022-12-07T02:19:48;9.71;;;6.2;;
67429;SDS011;54298;52.076;5.264;2022-12-07T02:22:13;8.81;;;4.7;;
67429;SDS011;54298;52.076;5.264;2022-12-07T02:24:15;9.81;;;5.2;;
67429;SDS011;54298;52.076;5.264;2022-12-07T02:26:55;11.4;;;5.7;;
67429;SDS011;54298;52.076;5.264;2022-12-07T02:29:30;8.5;;;4.2;;
67429;SDS011;54298;52.076;5.264;2022-12-07T02:32:56;11.1;;;5.3;;
67429;SDS011;54298;52.076;5.264;2022-12-07T02:34:41;11.1;;;5.6;;
67429;SDS011;54298;52.076;5.264;2022-12-07T02:36:28;12.0;;;5.7;;
67429;SDS011;54298;52.076;5.264;2022-12-07T02:38:11;11.9;;;6.0;;
67429;SDS011;54298;52.076;5.264;2022-12-07T02:39:53;12.0;;;5.5;;
67429;SDS011;54298;52.076;5.264;2022-12-07T02:43:18;7.5;;;4.5;;
67429;SDS011;54298;52.076;5.264;2022-12-07T02:44:59;11.2;;;4.7;;
67429;SDS011;54298;52.076;5.264;2022-12-07T02:46:40;11.4;;;4.91;;
67429;SDS011;54298;52.076;5.264;2022-12-07T02:48:20;7.8;;;5.11;;
67429;SDS011;54298;52.076;5.264;2022-12-07T02:51:33;9.6;;;5.11;;
67429;SDS011;54298;52.076;5.264;2022-12-07T02:53:46;10.21;;;4.8;;
67429;SDS011;54298;52.076;5.264;2022-12-07T02:55:24;9.81;;;5.3;;
67429;SDS011;54298;52.076;5.264;2022-12-07T02:57:07;8.0;;;4.41;;
67429;SDS011;54298;52.076;5.264;2022-12-07T02:59:00;11.2;;;5.3;;
67429;SDS011;54298;52.076;5.264;2022-12-07T03:00:56;12.1;;;5.6;;
67429;SDS011;54298;52.076;5.264;2022-12-07T03:02:48;12.0;;;5.5;;
67429;SDS011;54298;52.076;5.264;2022-12-07T03:06:20;9.71;;;5.11;;
67429;SDS011;54298;52.076;5.264;2022-12-07T03:08:05;9.6;;;5.8;;
67429;SDS011;54298;52.076;5.264;2022-12-07T03:09:51;13.0;;;6.0;;
67429;SDS011;54298;52.076;5.264;2022-12-07T03:11:37;9.5;;;5.11;;
67429;SDS011;54298;52.076;5.264;2022-12-07T03:13:22;12.0;;;6.0;;
67429;SDS011;54298;52.076;5.264;2022-12-07T03:16:49;9.71;;;4.3;;
67429;SDS011;54298;52.076;5.264;2022-12-07T03:18:32;11.3;;;4.7;;
67429;SDS011;54298;52.076;5.264;2022-12-07T03:20:15;9.9;;;5.3;;
67429;SDS011;54298;52.076;5.264;2022-12-07T03:21:58;8.1;;;3.5;;
67429;SDS011;54298;52.076;5.264;2022-12-07T03:23:39;9.71;;;3.9;;
67429;SDS011;54298;52.076;5.264;2022-12-07T03:26:58;12.1;;;4.3;;
67429;SDS011;54298;52.076;5.264;2022-12-07T03:28:49;9.4;;;4.61;;
67429;SDS011;54298;52.076;5.264;2022-12-07T03:30:31;11.5;;;5.2;;
67429;SDS011;54298;52.076;5.264;2022-12-07T03:32:14;11.2;;;5.2;;
67429;SDS011;54298;52.076;5.264;2022-12-07T03:34:02;12.0;;;5.2;;
67429;SDS011;54298;52.076;5.264;2022-12-07T03:37:36;10.6;;;4.7;;
67429;SDS011;54298;52.076;5.264;2022-12-07T03:39:21;11.4;;;4.7;;
67429;SDS011;54298;52.076;5.264;2022-12-07T03:41:03;7.8;;;4.8;;
67429;SDS011;54298;52.076;5.264;2022-12-07T03:42:45;8.6;;;4.41;;
67429;SDS011;54298;52.076;5.264;2022-12-07T03:46:01;8.0;;;4.3;;
67429;SDS011;54298;52.076;5.264;2022-12-07T03:47:53;10.8;;;5.0;;
67429;SDS011;54298;52.076;5.264;2022-12-07T03:49:40;9.4;;;4.2;;
67429;SDS011;54298;52.076;5.264;2022-12-07T03:51:22;9.5;;;4.91;;
67429;SDS011;54298;52.076;5.264;2022-12-07T03:53:05;10.1;;;5.0;;
67429;SDS011;54298;52.076;5.264;2022-12-07T03:56:32;8.1;;;4.8;;
67429;SDS011;54298;52.076;5.264;2022-12-07T03:58:12;14.0;;;5.4;;
67429;SDS011;54298;52.076;5.264;2022-12-07T03:59:53;10.4;;;5.4;;
67429;SDS011;54298;52.076;5.264;2022-12-07T04:01:31;9.4;;;5.3;;
67429;SDS011;54298;52.076;5.264;2022-12-07T04:04:45;10.6;;;5.5;;
67429;SDS011;54298;52.076;5.264;2022-12-07T04:06:21;10.1;;;5.0;;
67429;SDS011;54298;52.076;5.264;2022-12-07T04:07:57;11.3;;;5.4;;
67429;SDS011;54298;52.076;5.264;2022-12-07T04:11:09;7.5;;;4.41;;
67429;SDS011;54298;52.076;5.264;2022-12-07T04:12:46;9.0;;;4.8;;
67429;SDS011;54298;52.076;5.264;2022-12-07T04:14:23;9.9;;;5.6;;
67429;SDS011;54298;52.076;5.264;2022-12-07T04:15:59;10.0;;;5.3;;
67429;SDS011;54298;52.076;5.264;2022-12-07T04:19:12;12.3;;;5.2;;
67429;SDS011;54298;52.076;5.264;2022-12-07T04:20:49;12.5;;;4.8;;
67429;SDS011;54298;52.076;5.264;2022-12-07T04:22:25;10.5;;;4.5;;
67429;SDS011;54298;52.076;5.264;2022-12-07T04:25:39;10.7;;;4.8;;
67429;SDS011;54298;52.076;5.264;2022-12-07T04:27:16;6.6;;;4.3;;
67429;SDS011;54298;52.076;5.264;2022-12-07T04:28:52;7.8;;;3.9;;
67429;SDS011;54298;52.076;5.264;2022-12-07T04:32:05;8.6;;;4.61;;
67429;SDS011;54298;52.076;5.264;2022-12-07T04:33:41;8.81;;;4.61;;
67429;SDS011;54298;52.076;5.264;2022-12-07T04:35:17;7.7;;;4.5;;
67429;SDS011;54298;52.076;5.264;2022-12-07T04:36:53;13.8;;;4.8;;
67429;SDS011;54298;52.076;5.264;2022-12-07T04:40:06;10.1;;;4.5;;
67429;SDS011;54298;52.076;5.264;2022-12-07T04:41:45;9.9;;;4.61;;
67429;SDS011;54298;52.076;5.264;2022-12-07T04:43:21;8.71;;;4.41;;
67429;SDS011;54298;52.076;5.264;2022-12-07T04:46:33;10.3;;;4.5;;
67429;SDS011;54298;52.076;5.264;2022-12-07T04:48:09;8.5;;;4.2;;
67429;SDS011;54298;52.076;5.264;2022-12-07T04:49:45;8.2;;;3.5;;
67429;SDS011;54298;52.076;5.264;2022-12-07T04:53:01;8.31;;;3.7;;
67429;SDS011;54298;52.076;5.264;2022-12-07T04:54:37;7.1;;;3.7;;
67429;SDS011;54298;52.076;5.264;2022-12-07T04:56:13;7.0;;;3.7;;
67429;SDS011;54298;52.076;5.264;2022-12-07T04:57:50;8.1;;;3.7;;
67429;SDS011;54298;52.076;5.264;2022-12-07T05:01:03;7.3;;;4.0;;
67429;SDS011;54298;52.076;5.264;2022-12-07T05:02:39;10.3;;;4.8;;
67429;SDS011;54298;52.076;5.264;2022-12-07T05:04:16;10.3;;;4.3;;
67429;SDS011;54298;52.076;5.264;2022-12-07T05:07:28;10.5;;;3.9;;
67429;SDS011;54298;52.076;5.264;2022-12-07T05:09:04;8.6;;;3.7;;
67429;SDS011;54298;52.076;5.264;2022-12-07T05:10:41;8.4;;;3.5;;
67429;SDS011;54298;52.076;5.264;2022-12-07T05:13:54;11.6;;;4.3;;
67429;SDS011;54298;52.076;5.264;2022-12-07T05:15:31;11.6;;;4.8;;
67429;SDS011;54298;52.076;5.264;2022-12-07T05:17:07;10.3;;;4.7;;
67429;SDS011;54298;52.076;5.264;2022-12-07T05:18:43;9.81;;;4.1;;
67429;SDS011;54298;52.076;5.264;2022-12-07T05:21:56;10.7;;;5.0;;
67429;SDS011;54298;52.076;5.264;2022-12-07T05:23:32;9.31;;;4.7;;
67429;SDS011;54298;52.076;5.264;2022-12-07T05:25:08;9.71;;;4.61;;
67429;SDS011;54298;52.076;5.264;2022-12-07T05:28:22;8.81;;;4.1;;
67429;SDS011;54298;52.076;5.264;2022-12-07T05:29:58;7.6;;;4.1;;
67429;SDS011;54298;52.076;5.264;2022-12-07T05:31:34;10.4;;;4.1;;
67429;SDS011;54298;52.076;5.264;2022-12-07T05:34:46;8.6;;;5.0;;
67429;SDS011;54298;52.076;5.264;2022-12-07T05:36:23;10.21;;;3.8;;
67429;SDS011;54298;52.076;5.264;2022-12-07T05:37:59;10.9;;;4.41;;
67429;SDS011;54298;52.076;5.264;2022-12-07T05:39:34;8.9;;;3.7;;
67429;SDS011;54298;52.076;5.264;2022-12-07T05:43:48;6.7;;;3.7;;
67429;SDS011;54298;52.076;5.264;2022-12-07T05:47:00;8.71;;;3.9;;
67429;SDS011;54298;52.076;5.264;2022-12-07T05:48:36;8.5;;;4.3;;
67429;SDS011;54298;52.076;5.264;2022-12-07T05:50:12;10.1;;;4.8;;
67429;SDS011;54298;52.076;5.264;2022-12-07T05:53:25;8.2;;;3.5;;
67429;SDS011;54298;52.076;5.264;2022-12-07T05:55:01;7.8;;;3.9;;
67429;SDS011;54298;52.076;5.264;2022-12-07T05:56:37;8.9;;;4.0;;
67429;SDS011;54298;52.076;5.264;2022-12-07T06:01:06;10.4;;;4.2;;
67429;SDS011;54298;52.076;5.264;2022-12-07T06:02:42;9.21;;;3.9;;
67429;SDS011;54298;52.076;5.264;2022-12-07T06:05:56;8.71;;;4.3;;
67429;SDS011;54298;52.076;5.264;2022-12-07T06:07:32;10.0;;;3.5;;
67429;SDS011;54298;52.076;5.264;2022-12-07T06:09:08;12.0;;;4.41;;
67429;SDS011;54298;52.076;5.264;2022-12-07T06:12:39;7.8;;;3.8;;
67429;SDS011;54298;52.076;5.264;2022-12-07T06:14:16;10.1;;;5.2;;
67429;SDS011;54298;52.076;5.264;2022-12-07T06:15:52;11.5;;;4.7;;
67429;SDS011;54298;52.076;5.264;2022-12-07T06:17:28;8.4;;;3.7;;
67429;SDS011;54298;52.076;5.264;2022-12-07T06:20:40;8.6;;;4.2;;
67429;SDS011;54298;52.076;5.264;2022-12-07T06:22:17;7.4;;;3.9;;
67429;SDS011;54298;52.076;5.264;2022-12-07T06:23:54;11.6;;;4.91;;
67429;SDS011;54298;52.076;5.264;2022-12-07T06:27:06;9.0;;;4.0;;
67429;SDS011;54298;52.076;5.264;2022-12-07T06:28:43;10.8;;;4.41;;
67429;SDS011;54298;52.076;5.264;2022-12-07T06:30:19;9.9;;;5.11;;
67429;SDS011;54298;52.076;5.264;2022-12-07T06:31:56;6.7;;;3.3;;
67429;SDS011;54298;52.076;5.264;2022-12-07T06:35:08;7.3;;;3.3;;
67429;SDS011;54298;52.076;5.264;2022-12-07T06:36:45;9.71;;;4.0;;
67429;SDS011;54298;52.076;5.264;2022-12-07T06:38:23;9.71;;;4.0;;
67429;SDS011;54298;52.076;5.264;2022-12-07T06:41:37;9.81;;;4.3;;
67429;SDS011;54298;52.076;5.264;2022-12-07T06:43:13;11.7;;;4.61;;
67429;SDS011;54298;52.076;5.264;2022-12-07T06:44:50;8.1;;;3.6;;
67429;SDS011;54298;52.076;5.264;2022-12-07T06:48:02;10.1;;;4.3;;
67429;SDS011;54298;52.076;5.264;2022-12-07T06:49:39;7.6;;;4.7;;
67429;SDS011;54298;52.076;5.264;2022-12-07T06:51:15;9.0;;;4.1;;
67429;SDS011;54298;52.076;5.264;2022-12-07T06:52:52;7.9;;;3.6;;
67429;SDS011;54298;52.076;5.264;2022-12-07T06:56:06;8.0;;;4.0;;
67429;SDS011;54298;52.076;5.264;2022-12-07T06:57:43;11.6;;;4.0;;
67429;SDS011;54298;52.076;5.264;2022-12-07T06:59:20;7.8;;;3.1;;
67429;SDS011;54298;52.076;5.264;2022-12-07T07:02:33;7.8;;;3.6;;
67429;SDS011;54298;52.076;5.264;2022-12-07T07:04:09;13.1;;;4.8;;
67429;SDS011;54298;52.076;5.264;2022-12-07T07:05:45;6.9;;;3.2;;
67429;SDS011;54298;52.076;5.264;2022-12-07T07:08:58;8.6;;;3.9;;
67429;SDS011;54298;52.076;5.264;2022-12-07T07:10:34;9.21;;;4.41;;
67429;SDS011;54298;52.076;5.264;2022-12-07T07:12:11;13.1;;;4.7;;
67429;SDS011;54298;52.076;5.264;2022-12-07T07:13:47;11.6;;;4.8;;
67429;SDS011;54298;52.076;5.264;2022-12-07T07:17:00;9.31;;;4.8;;
67429;SDS011;54298;52.076;5.264;2022-12-07T07:18:36;8.6;;;3.9;;
67429;SDS011;54298;52.076;5.264;2022-12-07T07:20:13;11.7;;;5.2;;
67429;SDS011;54298;52.076;5.264;2022-12-07T07:23:25;12.2;;;4.7;;
67429;SDS011;54298;52.076;5.264;2022-12-07T07:25:01;11.3;;;4.61;;
67429;SDS011;54298;52.076;5.264;2022-12-07T07:26:38;10.5;;;4.7;;
67429;SDS011;54298;52.076;5.264;2022-12-07T07:29:52;9.5;;;4.3;;
67429;SDS011;54298;52.076;5.264;2022-12-07T07:31:28;34.6;;;15.0;;
67429;SDS011;54298;52.076;5.264;2022-12-07T07:33:04;10.8;;;5.6;;
67429;SDS011;54298;52.076;5.264;2022-12-07T07:34:41;7.9;;;3.6;;
67429;SDS011;54298;52.076;5.264;2022-12-07T07:37:54;10.3;;;4.41;;
67429;SDS011;54298;52.076;5.264;2022-12-07T07:39:31;9.0;;;4.2;;
67429;SDS011;54298;52.076;5.264;2022-12-07T07:41:07;9.81;;;4.7;;
67429;SDS011;54298;52.076;5.264;2022-12-07T07:44:19;10.3;;;5.11;;
67429;SDS011;54298;52.076;5.264;2022-12-07T07:45:55;11.3;;;4.91;;
67429;SDS011;54298;52.076;5.264;2022-12-07T07:47:31;11.8;;;5.0;;
67429;SDS011;54298;52.076;5.264;2022-12-07T07:50:44;9.4;;;4.7;;
67429;SDS011;54298;52.076;5.264;2022-12-07T07:52:20;10.6;;;5.0;;
67429;SDS011;54298;52.076;5.264;2022-12-07T07:53:57;9.1;;;4.8;;
67429;SDS011;54298;52.076;5.264;2022-12-07T07:55:33;8.31;;;4.61;;
67429;SDS011;54298;52.076;5.264;2022-12-07T07:58:46;13.1;;;5.0;;
67429;SDS011;54298;52.076;5.264;2022-12-07T08:00:22;12.2;;;5.11;;
67429;SDS011;54298;52.076;5.264;2022-12-07T08:01:58;8.2;;;4.91;;
67429;SDS011;54298;52.076;5.264;2022-12-07T08:05:11;11.7;;;4.41;;
67429;SDS011;54298;52.076;5.264;2022-12-07T08:06:49;11.6;;;5.0;;
67429;SDS011;54298;52.076;5.264;2022-12-07T08:08:25;10.0;;;4.8;;
67429;SDS011;54298;52.076;5.264;2022-12-07T08:11:38;10.7;;;4.91;;
67429;SDS011;54298;52.076;5.264;2022-12-07T08:13:15;14.1;;;5.3;;
67429;SDS011;54298;52.076;5.264;2022-12-07T08:14:51;10.9;;;5.6;;
67429;SDS011;54298;52.076;5.264;2022-12-07T08:16:29;11.4;;;5.11;;
67429;SDS011;54298;52.076;5.264;2022-12-07T08:19:42;11.2;;;4.91;;
67429;SDS011;54298;52.076;5.264;2022-12-07T08:21:18;12.9;;;5.11;;
67429;SDS011;54298;52.076;5.264;2022-12-07T08:22:54;12.5;;;4.41;;
67429;SDS011;54298;52.076;5.264;2022-12-07T08:26:09;10.0;;;4.2;;
67429;SDS011;54298;52.076;5.264;2022-12-07T08:27:48;7.2;;;3.2;;
67429;SDS011;54298;52.076;5.264;2022-12-07T08:29:25;5.7;;;3.3;;
67429;SDS011;54298;52.076;5.264;2022-12-07T08:32:39;10.1;;;4.0;;
67429;SDS011;54298;52.076;5.264;2022-12-07T08:34:16;8.0;;;4.3;;
67429;SDS011;54298;52.076;5.264;2022-12-07T08:35:52;8.5;;;4.3;;
67429;SDS011;54298;52.076;5.264;2022-12-07T08:37:28;6.8;;;3.8;;
67429;SDS011;54298;52.076;5.264;2022-12-07T08:40:40;9.31;;;4.3;;
67429;SDS011;54298;52.076;5.264;2022-12-07T08:42:16;11.2;;;5.3;;
67429;SDS011;54298;52.076;5.264;2022-12-07T08:43:53;11.4;;;4.8;;
67429;SDS011;54298;52.076;5.264;2022-12-07T08:47:08;12.2;;;4.7;;
67429;SDS011;54298;52.076;5.264;2022-12-07T08:48:48;11.3;;;4.1;;
67429;SDS011;54298;52.076;5.264;2022-12-07T08:50:29;26.0;;;13.0;;
67429;SDS011;54298;52.076;5.264;2022-12-07T08:52:07;12.5;;;4.3;;
67429;SDS011;54298;52.076;5.264;2022-12-07T08:55:20;12.2;;;4.7;;
67429;SDS011;54298;52.076;5.264;2022-12-07T08:56:57;37.21;;;16.11;;
67429;SDS011;54298;52.076;5.264;2022-12-07T08:58:33;36.6;;;16.2;;
67429;SDS011;54298;52.076;5.264;2022-12-07T09:01:50;11.6;;;5.2;;
67429;SDS011;54298;52.076;5.264;2022-12-07T09:03:26;14.8;;;4.5;;
67429;SDS011;54298;52.076;5.264;2022-12-07T09:05:02;11.4;;;4.7;;
67429;SDS011;54298;52.076;5.264;2022-12-07T09:06:40;12.4;;;5.0;;
67429;SDS011;54298;52.076;5.264;2022-12-07T09:09:55;14.0;;;5.0;;
67429;SDS011;54298;52.076;5.264;2022-12-07T09:11:32;11.6;;;5.11;;
67429;SDS011;54298;52.076;5.264;2022-12-07T09:13:08;12.2;;;5.2;;
67429;SDS011;54298;52.076;5.264;2022-12-07T09:16:20;11.4;;;4.3;;
67429;SDS011;54298;52.076;5.264;2022-12-07T09:17:56;11.4;;;5.3;;
67429;SDS011;54298;52.076;5.264;2022-12-07T09:19:33;13.8;;;4.5;;
67429;SDS011;54298;52.076;5.264;2022-12-07T09:22:45;12.1;;;3.6;;
67429;SDS011;54298;52.076;5.264;2022-12-07T09:24:22;12.0;;;4.0;;
67429;SDS011;54298;52.076;5.264;2022-12-07T09:25:59;11.3;;;4.0;;
67429;SDS011;54298;52.076;5.264;2022-12-07T09:27:35;11.6;;;4.1;;
67429;SDS011;54298;52.076;5.264;2022-12-07T09:30:48;13.8;;;5.8;;
67429;SDS011;54298;52.076;5.264;2022-12-07T09:32:25;10.3;;;3.5;;
67429;SDS011;54298;52.076;5.264;2022-12-07T09:34:01;14.0;;;4.2;;
67429;SDS011;54298;52.076;5.264;2022-12-07T09:37:13;17.8;;;7.3;;
67429;SDS011;54298;52.076;5.264;2022-12-07T09:38:50;18.11;;;6.8;;
67429;SDS011;54298;52.076;5.264;2022-12-07T09:40:27;13.0;;;3.6;;
67429;SDS011;54298;52.076;5.264;2022-12-07T09:43:42;12.0;;;3.4;;
67429;SDS011;54298;52.076;5.264;2022-12-07T09:45:21;16.2;;;5.11;;
67429;SDS011;54298;52.076;5.264;2022-12-07T09:47:00;14.3;;;3.8;;
67429;SDS011;54298;52.076;5.264;2022-12-07T09:48:37;10.0;;;3.0;;
67429;SDS011;54298;52.076;5.264;2022-12-07T09:52:02;12.6;;;3.4;;
67429;SDS011;54298;52.076;5.264;2022-12-07T09:53:54;10.9;;;3.4;;
67429;SDS011;54298;52.076;5.264;2022-12-07T09:55:33;16.9;;;3.9;;
67429;SDS011;54298;52.076;5.264;2022-12-07T09:57:27;10.4;;;3.2;;
67429;SDS011;54298;52.076;5.264;2022-12-07T09:59:06;10.5;;;3.2;;
67429;SDS011;54298;52.076;5.264;2022-12-07T10:02:35;15.8;;;5.11;;
67429;SDS011;54298;52.076;5.264;2022-12-07T10:04:13;12.6;;;4.91;;
67429;SDS011;54298;52.076;5.264;2022-12-07T10:05:54;12.4;;;4.61;;
67429;SDS011;54298;52.076;5.264;2022-12-07T10:07:31;10.21;;;3.7;;
67429;SDS011;54298;52.076;5.264;2022-12-07T10:10:48;15.4;;;5.2;;
67429;SDS011;54298;52.076;5.264;2022-12-07T10:12:28;10.6;;;3.8;;
67429;SDS011;54298;52.076;5.264;2022-12-07T10:14:10;11.0;;;3.5;;
67429;SDS011;54298;52.076;5.264;2022-12-07T10:15:49;9.4;;;3.4;;
67429;SDS011;54298;52.076;5.264;2022-12-07T10:19:17;9.9;;;3.2;;
67429;SDS011;54298;52.076;5.264;2022-12-07T10:21:00;29.0;;;13.3;;
67429;SDS011;54298;52.076;5.264;2022-12-07T10:22:50;17.5;;;6.2;;
67429;SDS011;54298;52.076;5.264;2022-12-07T10:24:30;17.5;;;6.2;;
67429;SDS011;54298;52.076;5.264;2022-12-07T10:26:40;15.0;;;6.4;;
67429;SDS011;54298;52.076;5.264;2022-12-07T10:28:33;13.1;;;4.2;;
67429;SDS011;54298;52.076;5.264;2022-12-07T10:32:00;13.0;;;4.0;;
67429;SDS011;54298;52.076;5.264;2022-12-07T10:33:44;11.1;;;3.6;;
67429;SDS011;54298;52.076;5.264;2022-12-07T10:35:26;10.6;;;3.0;;
67429;SDS011;54298;52.076;5.264;2022-12-07T10:37:20;9.81;;;3.0;;
67429;SDS011;54298;52.076;5.264;2022-12-07T10:38:59;11.9;;;3.6;;
67429;SDS011;54298;52.076;5.264;2022-12-07T10:42:16;11.6;;;4.5;;
67429;SDS011;54298;52.076;5.264;2022-12-07T10:43:55;18.0;;;6.8;;
67429;SDS011;54298;52.076;5.264;2022-12-07T10:45:34;9.81;;;3.7;;
67429;SDS011;54298;52.076;5.264;2022-12-07T10:47:22;10.6;;;3.8;;
67429;SDS011;54298;52.076;5.264;2022-12-07T10:49:11;12.1;;;4.3;;
67429;SDS011;54298;52.076;5.264;2022-12-07T10:52:27;11.7;;;3.4;;
67429;SDS011;54298;52.076;5.264;2022-12-07T10:54:20;10.9;;;3.2;;
67429;SDS011;54298;52.076;5.264;2022-12-07T10:56:30;10.7;;;4.1;;
67429;SDS011;54298;52.076;5.264;2022-12-07T10:58:25;14.0;;;4.91;;
67429;SDS011;54298;52.076;5.264;2022-12-07T11:00:15;10.8;;;3.1;;
67429;SDS011;54298;52.076;5.264;2022-12-07T11:01:57;15.3;;;5.11;;
67429;SDS011;54298;52.076;5.264;2022-12-07T11:03:53;13.6;;;5.2;;
67429;SDS011;54298;52.076;5.264;2022-12-07T11:05:54;13.0;;;3.8;;
67429;SDS011;54298;52.076;5.264;2022-12-07T11:09:47;11.6;;;3.2;;
67429;SDS011;54298;52.076;5.264;2022-12-07T11:11:44;9.4;;;2.5;;
67429;SDS011;54298;52.076;5.264;2022-12-07T11:13:32;11.7;;;4.0;;
67429;SDS011;54298;52.076;5.264;2022-12-07T11:15:22;15.5;;;5.6;;
67429;SDS011;54298;52.076;5.264;2022-12-07T11:17:05;9.81;;;3.4;;
67429;SDS011;54298;52.076;5.264;2022-12-07T11:18:51;10.8;;;3.0;;
67429;SDS011;54298;52.076;5.264;2022-12-07T11:20:43;12.5;;;4.3;;
67429;SDS011;54298;52.076;5.264;2022-12-07T11:24:14;10.7;;;3.7;;
67429;SDS011;54298;52.076;5.264;2022-12-07T11:25:54;12.0;;;3.9;;
67429;SDS011;54298;52.076;5.264;2022-12-07T11:27:43;12.0;;;3.9;;
67429;SDS011;54298;52.076;5.264;2022-12-07T11:29:41;15.6;;;5.7;;
67429;SDS011;54298;52.076;5.264;2022-12-07T11:31:32;14.9;;;4.2;;
67429;SDS011;54298;52.076;5.264;2022-12-07T11:33:29;11.9;;;3.7;;
67429;SDS011;54298;52.076;5.264;2022-12-07T11:35:17;9.21;;;3.6;;
67429;SDS011;54298;52.076;5.264;2022-12-07T11:38:50;9.5;;;3.2;;
67429;SDS011;54298;52.076;5.264;2022-12-07T11:40:30;8.6;;;2.8;;
67429;SDS011;54298;52.076;5.264;2022-12-07T11:42:12;9.21;;;2.4;;
67429;SDS011;54298;52.076;5.264;2022-12-07T11:43:58;8.6;;;2.31;;
67429;SDS011;54298;52.076;5.264;2022-12-07T11:45:41;11.4;;;3.4;;
67429;SDS011;54298;52.076;5.264;2022-12-07T11:49:08;9.81;;;3.4;;
67429;SDS011;54298;52.076;5.264;2022-12-07T11:50:51;11.4;;;3.8;;
67429;SDS011;54298;52.076;5.264;2022-12-07T11:52:36;10.3;;;3.6;;
67429;SDS011;54298;52.076;5.264;2022-12-07T11:54:25;12.2;;;4.7;;
67429;SDS011;54298;52.076;5.264;2022-12-07T11:56:08;14.3;;;4.61;;
67429;SDS011;54298;52.076;5.264;2022-12-07T11:59:36;9.1;;;3.1;;
67429;SDS011;54298;52.076;5.264;2022-12-07T12:01:25;23.7;;;11.0;;
67429;SDS011;54298;52.076;5.264;2022-12-07T12:03:24;30.3;;;14.6;;
67429;SDS011;54298;52.076;5.264;2022-12-07T12:05:12;25.6;;;10.7;;
67429;SDS011;54298;52.076;5.264;2022-12-07T12:06:53;14.1;;;5.11;;
67429;SDS011;54298;52.076;5.264;2022-12-07T12:10:15;11.7;;;4.5;;
67429;SDS011;54298;52.076;5.264;2022-12-07T12:12:01;36.21;;;21.1;;
67429;SDS011;54298;52.076;5.264;2022-12-07T12:14:01;46.7;;;23.1;;
67429;SDS011;54298;52.076;5.264;2022-12-07T12:16:01;43.5;;;21.2;;
67429;SDS011;54298;52.076;5.264;2022-12-07T12:17:56;43.5;;;21.2;;
67429;SDS011;54298;52.076;5.264;2022-12-07T12:21:02;49.3;;;25.5;;
67429;SDS011;54298;52.076;5.264;2022-12-07T12:22:45;69.61;;;31.8;;
67429;SDS011;54298;52.076;5.264;2022-12-07T12:24:26;54.1;;;26.3;;
67429;SDS011;54298;52.076;5.264;2022-12-07T12:26:08;12.1;;;4.5;;
67429;SDS011;54298;52.076;5.264;2022-12-07T12:27:54;11.3;;;3.4;;
67429;SDS011;54298;52.076;5.264;2022-12-07T12:29:33;15.4;;;3.8;;
67429;SDS011;54298;52.076;5.264;2022-12-07T12:32:51;15.4;;;3.8;;
67429;SDS011;54298;52.076;5.264;2022-12-07T12:34:29;12.2;;;3.4;;
67429;SDS011;54298;52.076;5.264;2022-12-07T12:36:18;9.6;;;3.3;;
67429;SDS011;54298;52.076;5.264;2022-12-07T12:38:30;9.81;;;3.1;;
67429;SDS011;54298;52.076;5.264;2022-12-07T12:40:42;13.0;;;3.7;;
67429;SDS011;54298;52.076;5.264;2022-12-07T12:42:19;10.3;;;3.3;;
67429;SDS011;54298;52.076;5.264;2022-12-07T12:45:31;12.1;;;3.8;;
67429;SDS011;54298;52.076;5.264;2022-12-07T12:48:27;11.6;;;3.1;;
67429;SDS011;54298;52.076;5.264;2022-12-07T12:50:22;9.31;;;3.1;;
67429;SDS011;54298;52.076;5.264;2022-12-07T12:52:48;11.5;;;3.1;;
67429;SDS011;54298;52.076;5.264;2022-12-07T12:55:48;12.8;;;3.6;;
67429;SDS011;54298;52.076;5.264;2022-12-07T12:58:46;12.1;;;3.8;;